sensor_id;sensor_type;location;lat;lon;timestamp;pressure;altitude;pressure_sealevel;temperature;humidity
64853;BME280;56050;55.558;-4.644;2023-05-12T00:01:36;102601.44;;;12.90;60.83
64853;BME280;56050;55.558;-4.644;2023-05-12T00:04:01;102601.00;;;12.88;60.78
64853;BME280;56050;55.558;-4.644;2023-05-12T00:06:27;102607.53;;;12.87;60.83
64853;BME280;56050;55.558;-4.644;2023-05-12T00:08:52;102603.28;;;12.86;60.78
64853;BME280;56050;55.558;-4.644;2023-05-12T00:11:18;102608.63;;;12.82;60.87
64853;BME280;56050;55.558;-4.644;2023-05-12T00:13:43;102605.91;;;12.82;60.92
64853;BME280;56050;55.558;-4.644;2023-05-12T00:16:08;102608.63;;;12.82;60.91
64853;BME280;56050;55.558;-4.644;2023-05-12T00:18:34;102612.19;;;12.86;60.95
64853;BME280;56050;55.558;-4.644;2023-05-12T00:21:00;102614.19;;;12.89;60.88
64853;BME280;56050;55.558;-4.644;2023-05-12T00:23:25;102618.44;;;12.90;60.76
64853;BME280;56050;55.558;-4.644;2023-05-12T00:25:51;102615.31;;;12.88;60.97
64853;BME280;56050;55.558;-4.644;2023-05-12T00:28:17;102607.53;;;12.87;60.79
64853;BME280;56050;55.558;-4.644;2023-05-12T00:30:43;102609.41;;;12.83;60.93
64853;BME280;56050;55.558;-4.644;2023-05-12T00:33:08;102607.41;;;12.80;61.23
64853;BME280;56050;55.558;-4.644;2023-05-12T00:35:34;102605.00;;;12.75;61.38
64853;BME280;56050;55.558;-4.644;2023-05-12T00:37:59;102607.19;;;12.69;61.38
64853;BME280;56050;55.558;-4.644;2023-05-12T00:40:24;102604.78;;;12.64;61.78
64853;BME280;56050;55.558;-4.644;2023-05-12T00:42:50;102608.50;;;12.60;61.83
64853;BME280;56050;55.558;-4.644;2023-05-12T00:45:15;102611.88;;;12.53;62.07
64853;BME280;56050;55.558;-4.644;2023-05-12T00:47:41;102609.88;;;12.50;62.31
64853;BME280;56050;55.558;-4.644;2023-05-12T00:50:07;102611.00;;;12.49;62.39
64853;BME280;56050;55.558;-4.644;2023-05-12T00:52:33;102618.69;;;12.47;62.65
64853;BME280;56050;55.558;-4.644;2023-05-12T00:54:59;102620.25;;;12.48;62.88
64853;BME280;56050;55.558;-4.644;2023-05-12T00:57:25;102615.59;;;12.49;63.01
64853;BME280;56050;55.558;-4.644;2023-05-12T00:59:52;102633.50;;;12.53;62.90
64853;BME280;56050;55.558;-4.644;2023-05-12T01:02:18;102636.72;;;12.59;62.80
64853;BME280;56050;55.558;-4.644;2023-05-12T01:04:44;102638.75;;;12.65;62.61
64853;BME280;56050;55.558;-4.644;2023-05-12T01:07:17;102642.75;;;12.71;62.68
64853;BME280;56050;55.558;-4.644;2023-05-12T01:09:43;102651.47;;;12.80;62.64
64853;BME280;56050;55.558;-4.644;2023-05-12T01:12:09;102651.59;;;12.87;62.55
64853;BME280;56050;55.558;-4.644;2023-05-12T01:14:34;102653.28;;;12.92;62.72
64853;BME280;56050;55.558;-4.644;2023-05-12T01:17:02;102655.28;;;12.95;62.59
64853;BME280;56050;55.558;-4.644;2023-05-12T01:19:40;102663.88;;;13.01;62.55
64853;BME280;56050;55.558;-4.644;2023-05-12T01:22:08;102662.94;;;13.09;62.46
64853;BME280;56050;55.558;-4.644;2023-05-12T01:24:37;102678.88;;;13.14;62.46
64853;BME280;56050;55.558;-4.644;2023-05-12T01:27:07;102677.78;;;13.18;62.40
64853;BME280;56050;55.558;-4.644;2023-05-12T01:29:34;102665.88;;;13.23;62.36
64853;BME280;56050;55.558;-4.644;2023-05-12T01:32:00;102664.06;;;13.27;62.42
64853;BME280;56050;55.558;-4.644;2023-05-12T01:34:27;102657.50;;;13.28;62.26
64853;BME280;56050;55.558;-4.644;2023-05-12T01:36:52;102659.84;;;13.29;62.29
64853;BME280;56050;55.558;-4.644;2023-05-12T01:39:18;102660.97;;;13.28;62.39
64853;BME280;56050;55.558;-4.644;2023-05-12T01:41:43;102658.28;;;13.28;62.21
64853;BME280;56050;55.558;-4.644;2023-05-12T01:44:08;102665.63;;;13.28;62.45
64853;BME280;56050;55.558;-4.644;2023-05-12T01:46:34;102667.19;;;13.29;62.21
64853;BME280;56050;55.558;-4.644;2023-05-12T01:48:59;102668.34;;;13.28;62.35
64853;BME280;56050;55.558;-4.644;2023-05-12T01:51:24;102668.69;;;13.26;62.48
64853;BME280;56050;55.558;-4.644;2023-05-12T01:53:50;102674.88;;;13.27;62.71
64853;BME280;56050;55.558;-4.644;2023-05-12T01:56:15;102677.97;;;13.25;62.53
64853;BME280;56050;55.558;-4.644;2023-05-12T01:58:41;102683.38;;;13.25;62.52
64853;BME280;56050;55.558;-4.644;2023-05-12T02:01:06;102685.72;;;13.27;62.54
64853;BME280;56050;55.558;-4.644;2023-05-12T02:03:32;102691.91;;;13.27;62.62
64853;BME280;56050;55.558;-4.644;2023-05-12T02:05:57;102680.72;;;13.29;62.62
64853;BME280;56050;55.558;-4.644;2023-05-12T02:08:23;102699.31;;;13.30;62.66
64853;BME280;56050;55.558;-4.644;2023-05-12T02:10:48;102696.63;;;13.30;62.64
64853;BME280;56050;55.558;-4.644;2023-05-12T02:13:13;102701.31;;;13.33;62.62
64853;BME280;56050;55.558;-4.644;2023-05-12T02:15:39;102698.25;;;13.35;62.46
64853;BME280;56050;55.558;-4.644;2023-05-12T02:18:05;102704.06;;;13.37;62.63
64853;BME280;56050;55.558;-4.644;2023-05-12T02:20:30;102703.31;;;13.36;62.55
64853;BME280;56050;55.558;-4.644;2023-05-12T02:22:55;102698.25;;;13.35;62.73
64853;BME280;56050;55.558;-4.644;2023-05-12T02:25:21;102711.78;;;13.35;62.85
64853;BME280;56050;55.558;-4.644;2023-05-12T02:27:46;102713.69;;;13.34;62.61
64853;BME280;56050;55.558;-4.644;2023-05-12T02:30:12;102717.63;;;13.37;62.69
64853;BME280;56050;55.558;-4.644;2023-05-12T02:32:37;102721.53;;;13.39;62.54
64853;BME280;56050;55.558;-4.644;2023-05-12T02:35:03;102720.47;;;13.44;62.49
64853;BME280;56050;55.558;-4.644;2023-05-12T02:37:28;102721.69;;;13.46;62.76
64853;BME280;56050;55.558;-4.644;2023-05-12T02:39:54;102720.91;;;13.46;62.61
64853;BME280;56050;55.558;-4.644;2023-05-12T02:42:19;102721.69;;;13.46;62.64
64853;BME280;56050;55.558;-4.644;2023-05-12T02:44:45;102726.31;;;13.46;62.58
64853;BME280;56050;55.558;-4.644;2023-05-12T02:47:10;102727.09;;;13.46;62.73
64853;BME280;56050;55.558;-4.644;2023-05-12T02:49:36;102731.03;;;13.49;62.69
64853;BME280;56050;55.558;-4.644;2023-05-12T02:52:01;102721.75;;;13.50;62.56
64853;BME280;56050;55.558;-4.644;2023-05-12T02:54:27;102731.03;;;13.49;62.66
64853;BME280;56050;55.558;-4.644;2023-05-12T02:56:52;102739.16;;;13.49;62.69
64853;BME280;56050;55.558;-4.644;2023-05-12T02:59:17;102731.81;;;13.49;62.54
64853;BME280;56050;55.558;-4.644;2023-05-12T03:01:43;102742.28;;;13.51;62.75
64853;BME280;56050;55.558;-4.644;2023-05-12T03:04:08;102748.47;;;13.51;62.79
64853;BME280;56050;55.558;-4.644;2023-05-12T03:06:34;102746.56;;;13.52;62.54
64853;BME280;56050;55.558;-4.644;2023-05-12T03:08:59;102753.09;;;13.51;62.60
64853;BME280;56050;55.558;-4.644;2023-05-12T03:11:25;102749.59;;;13.50;62.66
64853;BME280;56050;55.558;-4.644;2023-05-12T03:13:50;102750.06;;;13.52;62.58
64853;BME280;56050;55.558;-4.644;2023-05-12T03:16:16;102748.13;;;13.53;62.55
64853;BME280;56050;55.558;-4.644;2023-05-12T03:18:42;102750.84;;;13.53;62.63
64853;BME280;56050;55.558;-4.644;2023-05-12T03:21:08;102753.56;;;13.53;62.68
64853;BME280;56050;55.558;-4.644;2023-05-12T03:23:33;102752.38;;;13.54;62.75
64853;BME280;56050;55.558;-4.644;2023-05-12T03:25:59;102752.38;;;13.54;62.75
64853;BME280;56050;55.558;-4.644;2023-05-12T03:28:25;102757.81;;;13.54;62.89
64853;BME280;56050;55.558;-4.644;2023-05-12T03:30:51;102760.50;;;13.54;62.97
64853;BME280;56050;55.558;-4.644;2023-05-12T03:33:16;102760.94;;;13.56;62.78
64853;BME280;56050;55.558;-4.644;2023-05-12T03:35:41;102760.22;;;13.59;62.74
64853;BME280;56050;55.558;-4.644;2023-05-12T03:38:07;102759.97;;;13.64;62.63
64853;BME280;56050;55.558;-4.644;2023-05-12T03:40:33;102760.81;;;13.68;62.64
64853;BME280;56050;55.558;-4.644;2023-05-12T03:42:59;102762.00;;;13.71;62.56
64853;BME280;56050;55.558;-4.644;2023-05-12T03:45:25;102758.59;;;13.74;62.58
64853;BME280;56050;55.558;-4.644;2023-05-12T03:47:50;102754.03;;;13.78;62.34
64853;BME280;56050;55.558;-4.644;2023-05-12T03:50:16;102758.28;;;13.79;62.68
64853;BME280;56050;55.558;-4.644;2023-05-12T03:52:41;102764.50;;;13.79;62.35
64853;BME280;56050;55.558;-4.644;2023-05-12T03:55:07;102766.50;;;13.82;62.45
64853;BME280;56050;55.558;-4.644;2023-05-12T03:57:33;102765.78;;;13.85;62.45
64853;BME280;56050;55.558;-4.644;2023-05-12T04:00:01;102772.00;;;13.86;62.24
64853;BME280;56050;55.558;-4.644;2023-05-12T04:02:26;102780.84;;;13.83;62.40
64853;BME280;56050;55.558;-4.644;2023-05-12T04:04:51;102779.63;;;13.80;62.35
64853;BME280;56050;55.558;-4.644;2023-05-12T04:07:17;102776.47;;;13.78;62.55
64853;BME280;56050;55.558;-4.644;2023-05-12T04:09:42;102774.84;;;13.74;62.60
64853;BME280;56050;55.558;-4.644;2023-05-12T04:12:11;102781.38;;;13.73;62.56
64853;BME280;56050;55.558;-4.644;2023-05-12T04:14:36;102784.84;;;13.70;62.65
64853;BME280;56050;55.558;-4.644;2023-05-12T04:17:03;102783.59;;;13.67;62.72
64853;BME280;56050;55.558;-4.644;2023-05-12T04:19:28;102791.31;;;13.65;62.61
64853;BME280;56050;55.558;-4.644;2023-05-12T04:21:54;102793.22;;;13.65;62.75
64853;BME280;56050;55.558;-4.644;2023-05-12T04:24:19;102800.13;;;13.62;62.98
64853;BME280;56050;55.558;-4.644;2023-05-12T04:26:45;102797.00;;;13.60;62.75
64853;BME280;56050;55.558;-4.644;2023-05-12T04:29:10;102802.44;;;13.60;62.75
64853;BME280;56050;55.558;-4.644;2023-05-12T04:31:37;102804.34;;;13.60;62.92
64853;BME280;56050;55.558;-4.644;2023-05-12T04:34:04;102802.78;;;13.59;63.06
64853;BME280;56050;55.558;-4.644;2023-05-12T04:36:29;102800.84;;;13.59;62.93
64853;BME280;56050;55.558;-4.644;2023-05-12T04:38:55;102816.38;;;13.62;62.87
64853;BME280;56050;55.558;-4.644;2023-05-12T04:41:20;102807.13;;;13.63;62.83
64853;BME280;56050;55.558;-4.644;2023-05-12T04:43:46;102816.47;;;13.66;62.90
64853;BME280;56050;55.558;-4.644;2023-05-12T04:46:12;102815.34;;;13.67;62.92
64853;BME280;56050;55.558;-4.644;2023-05-12T04:48:37;102823.09;;;13.68;62.95
64853;BME280;56050;55.558;-4.644;2023-05-12T04:51:06;102821.19;;;13.69;63.06
64853;BME280;56050;55.558;-4.644;2023-05-12T04:53:31;102824.69;;;13.69;63.02
64853;BME280;56050;55.558;-4.644;2023-05-12T04:55:58;102814.25;;;13.71;62.80
64853;BME280;56050;55.558;-4.644;2023-05-12T04:58:24;102814.25;;;13.71;63.13
64853;BME280;56050;55.558;-4.644;2023-05-12T05:00:50;102819.69;;;13.71;62.98
64853;BME280;56050;55.558;-4.644;2023-05-12T05:03:17;102826.59;;;13.69;63.17
64853;BME280;56050;55.558;-4.644;2023-05-12T05:05:42;102821.88;;;13.66;63.18
64853;BME280;56050;55.558;-4.644;2023-05-12T05:08:07;102828.38;;;13.61;62.97
64853;BME280;56050;55.558;-4.644;2023-05-12T05:10:33;102829.44;;;13.57;63.37
64853;BME280;56050;55.558;-4.644;2023-05-12T05:12:58;102831.28;;;13.52;63.25
64853;BME280;56050;55.558;-4.644;2023-05-12T05:15:24;102827.72;;;13.48;63.46
64853;BME280;56050;55.558;-4.644;2023-05-12T05:17:49;102835.75;;;13.45;63.33
64853;BME280;56050;55.558;-4.644;2023-05-12T05:20:15;102845.81;;;13.44;63.43
64853;BME280;56050;55.558;-4.644;2023-05-12T05:22:40;102852.72;;;13.42;63.55
64853;BME280;56050;55.558;-4.644;2023-05-12T05:25:06;102863.88;;;13.40;63.47
64853;BME280;56050;55.558;-4.644;2023-05-12T05:27:32;102863.88;;;13.40;63.49
64853;BME280;56050;55.558;-4.644;2023-05-12T05:29:57;102866.25;;;13.42;63.59
64853;BME280;56050;55.558;-4.644;2023-05-12T05:32:23;102873.66;;;13.45;63.55
64853;BME280;56050;55.558;-4.644;2023-05-12T05:34:48;102874.97;;;13.51;63.78
64853;BME280;56050;55.558;-4.644;2023-05-12T05:37:14;102871.53;;;13.54;63.57
64853;BME280;56050;55.558;-4.644;2023-05-12T05:39:40;102869.72;;;13.58;63.47
64853;BME280;56050;55.558;-4.644;2023-05-12T05:42:05;102875.13;;;13.58;63.48
64853;BME280;56050;55.558;-4.644;2023-05-12T05:44:31;102885.97;;;13.58;63.19
64853;BME280;56050;55.558;-4.644;2023-05-12T05:46:56;102878.97;;;13.57;63.56
64853;BME280;56050;55.558;-4.644;2023-05-12T05:49:22;102883.25;;;13.58;63.66
64853;BME280;56050;55.558;-4.644;2023-05-12T05:51:47;102879.34;;;13.56;63.37
64853;BME280;56050;55.558;-4.644;2023-05-12T05:54:13;102883.59;;;13.57;63.64
64853;BME280;56050;55.558;-4.644;2023-05-12T05:56:38;102878.16;;;13.57;63.63
64853;BME280;56050;55.558;-4.644;2023-05-12T05:59:04;102881.34;;;13.59;63.79
64853;BME280;56050;55.558;-4.644;2023-05-12T06:01:30;102873.22;;;13.59;63.63
64853;BME280;56050;55.558;-4.644;2023-05-12T06:03:56;102884.03;;;13.59;63.71
64853;BME280;56050;55.558;-4.644;2023-05-12T06:06:21;102884.03;;;13.59;63.55
64853;BME280;56050;55.558;-4.644;2023-05-12T06:08:47;102885.16;;;13.58;63.60
64853;BME280;56050;55.558;-4.644;2023-05-12T06:11:12;102898.00;;;13.61;63.79
64853;BME280;56050;55.558;-4.644;2023-05-12T06:13:37;102907.34;;;13.63;63.68
64853;BME280;56050;55.558;-4.644;2023-05-12T06:16:03;102904.72;;;13.67;63.83
64853;BME280;56050;55.558;-4.644;2023-05-12T06:18:29;102911.00;;;13.71;63.70
64853;BME280;56050;55.558;-4.644;2023-05-12T06:20:58;102912.66;;;13.75;63.59
64853;BME280;56050;55.558;-4.644;2023-05-12T06:23:23;102915.84;;;13.81;63.34
64853;BME280;56050;55.558;-4.644;2023-05-12T06:25:48;102912.00;;;13.82;63.47
64853;BME280;56050;55.558;-4.644;2023-05-12T06:28:14;102906.16;;;13.80;63.46
64853;BME280;56050;55.558;-4.644;2023-05-12T06:30:40;102911.16;;;13.78;63.50
64853;BME280;56050;55.558;-4.644;2023-05-12T06:33:05;102912.66;;;13.75;63.48
64853;BME280;56050;55.558;-4.644;2023-05-12T06:35:31;102918.84;;;13.76;63.69
64853;BME280;56050;55.558;-4.644;2023-05-12T06:37:56;102916.22;;;13.79;63.94
64853;BME280;56050;55.558;-4.644;2023-05-12T06:40:22;102921.00;;;13.86;64.03
64853;BME280;56050;55.558;-4.644;2023-05-12T06:42:47;102919.22;;;13.93;63.62
64853;BME280;56050;55.558;-4.644;2023-05-12T06:45:13;102915.09;;;13.99;63.70
64853;BME280;56050;55.558;-4.644;2023-05-12T06:47:38;102913.69;;;14.05;63.78
64853;BME280;56050;55.558;-4.644;2023-05-12T06:50:06;102914.31;;;14.18;63.84
64853;BME280;56050;55.558;-4.644;2023-05-12T06:52:31;102917.34;;;14.32;63.57
64853;BME280;56050;55.558;-4.644;2023-05-12T06:54:57;102914.53;;;14.48;63.65
64853;BME280;56050;55.558;-4.644;2023-05-12T06:57:22;102922.22;;;14.65;63.49
64853;BME280;56050;55.558;-4.644;2023-05-12T06:59:47;102933.03;;;14.84;63.33
64853;BME280;56050;55.558;-4.644;2023-05-12T07:02:13;102929.06;;;15.01;63.10
64853;BME280;56050;55.558;-4.644;2023-05-12T07:04:38;102929.94;;;15.08;62.75
64853;BME280;56050;55.558;-4.644;2023-05-12T07:07:04;102933.09;;;15.10;62.73
64853;BME280;56050;55.558;-4.644;2023-05-12T07:09:29;102937.31;;;15.08;62.41
64853;BME280;56050;55.558;-4.644;2023-05-12T07:11:55;102929.53;;;15.06;62.71
64853;BME280;56050;55.558;-4.644;2023-05-12T07:14:20;102926.88;;;15.10;62.46
64853;BME280;56050;55.558;-4.644;2023-05-12T07:16:45;102921.50;;;15.13;62.42
64853;BME280;56050;55.558;-4.644;2023-05-12T07:19:11;102922.34;;;15.17;62.54
64853;BME280;56050;55.558;-4.644;2023-05-12T07:21:36;102930.13;;;15.19;62.25
64853;BME280;56050;55.558;-4.644;2023-05-12T07:24:02;102934.06;;;15.21;62.11
64853;BME280;56050;55.558;-4.644;2023-05-12T07:26:27;102925.47;;;15.19;61.97
64853;BME280;56050;55.558;-4.644;2023-05-12T07:28:53;102932.34;;;15.13;61.90
64853;BME280;56050;55.558;-4.644;2023-05-12T07:31:19;102937.31;;;15.08;62.09
64853;BME280;56050;55.558;-4.644;2023-05-12T07:33:44;102938.09;;;15.08;62.14
64853;BME280;56050;55.558;-4.644;2023-05-12T07:36:10;102938.09;;;15.08;62.14
64853;BME280;56050;55.558;-4.644;2023-05-12T07:38:35;102944.25;;;15.05;62.09
64853;BME280;56050;55.558;-4.644;2023-05-12T07:41:01;102945.41;;;15.04;62.16
64853;BME280;56050;55.558;-4.644;2023-05-12T07:43:27;102939.19;;;15.04;62.12
64853;BME280;56050;55.558;-4.644;2023-05-12T07:45:53;102939.25;;;15.07;62.02
64853;BME280;56050;55.558;-4.644;2023-05-12T07:48:20;102934.31;;;15.13;61.90
64853;BME280;56050;55.558;-4.644;2023-05-12T07:50:45;102940.56;;;15.17;61.79
64853;BME280;56050;55.558;-4.644;2023-05-12T07:53:11;102946.38;;;15.15;61.72
64853;BME280;56050;55.558;-4.644;2023-05-12T07:55:36;102948.66;;;15.13;61.67
64853;BME280;56050;55.558;-4.644;2023-05-12T07:58:02;102950.13;;;15.07;61.70
64853;BME280;56050;55.558;-4.644;2023-05-12T08:00:27;102953.19;;;15.06;61.74
64853;BME280;56050;55.558;-4.644;2023-05-12T08:02:53;102956.28;;;15.04;61.76
64853;BME280;56050;55.558;-4.644;2023-05-12T08:05:19;102960.13;;;15.03;61.82
64853;BME280;56050;55.558;-4.644;2023-05-12T08:07:44;102952.75;;;15.04;61.77
64853;BME280;56050;55.558;-4.644;2023-05-12T08:10:11;102962.84;;;15.03;61.63
64853;BME280;56050;55.558;-4.644;2023-05-12T08:12:40;102964.41;;;15.04;61.81
64853;BME280;56050;55.558;-4.644;2023-05-12T08:15:07;102964.75;;;15.03;61.64
64853;BME280;56050;55.558;-4.644;2023-05-12T08:17:33;102962.84;;;15.03;61.59
64853;BME280;56050;55.558;-4.644;2023-05-12T08:19:59;102950.47;;;15.06;61.94
64853;BME280;56050;55.558;-4.644;2023-05-12T08:22:24;102949.41;;;15.10;61.39
64853;BME280;56050;55.558;-4.644;2023-05-12T08:24:50;102962.28;;;15.17;61.74
64853;BME280;56050;55.558;-4.644;2023-05-12T08:27:17;102961.22;;;15.21;61.32
64853;BME280;56050;55.558;-4.644;2023-05-12T08:29:42;102964.03;;;15.28;61.61
64853;BME280;56050;55.558;-4.644;2023-05-12T08:32:07;102977.00;;;15.39;61.30
64853;BME280;56050;55.558;-4.644;2023-05-12T08:34:33;102967.06;;;15.46;61.38
64853;BME280;56050;55.558;-4.644;2023-05-12T08:36:58;102969.16;;;15.56;61.00
64853;BME280;56050;55.558;-4.644;2023-05-12T08:39:24;102972.03;;;15.67;60.86
64853;BME280;56050;55.558;-4.644;2023-05-12T08:44:29;102977.69;;;15.81;60.43
64853;BME280;56050;55.558;-4.644;2023-05-12T08:46:56;102976.09;;;15.80;60.46
64853;BME280;56050;55.558;-4.644;2023-05-12T08:49:23;102978.81;;;15.80;60.39
64853;BME280;56050;55.558;-4.644;2023-05-12T08:51:52;102977.69;;;15.81;60.46
64853;BME280;56050;55.558;-4.644;2023-05-12T08:54:19;102983.53;;;15.83;60.28
64853;BME280;56050;55.558;-4.644;2023-05-12T08:56:46;102984.72;;;15.85;60.28
64853;BME280;56050;55.558;-4.644;2023-05-12T08:59:12;102978.56;;;15.88;60.06
64853;BME280;56050;55.558;-4.644;2023-05-12T09:01:38;102980.19;;;15.93;59.96
64853;BME280;56050;55.558;-4.644;2023-05-12T09:04:07;102989.91;;;15.94;59.97
64853;BME280;56050;55.558;-4.644;2023-05-12T09:06:33;102988.38;;;15.97;60.04
64853;BME280;56050;55.558;-4.644;2023-05-12T09:08:59;102983.00;;;16.00;59.98
64853;BME280;56050;55.558;-4.644;2023-05-12T09:11:24;102995.84;;;16.03;59.77
64853;BME280;56050;55.558;-4.644;2023-05-12T09:14:01;102992.41;;;16.06;59.76
64853;BME280;56050;55.558;-4.644;2023-05-12T09:16:33;102977.69;;;16.11;59.65
64853;BME280;56050;55.558;-4.644;2023-05-12T09:19:00;102987.47;;;16.15;59.50
64853;BME280;56050;55.558;-4.644;2023-05-12T09:21:27;102996.00;;;16.14;59.29
64853;BME280;56050;55.558;-4.644;2023-05-12T09:26:25;102990.94;;;16.12;59.38
64853;BME280;56050;55.558;-4.644;2023-05-12T09:28:52;102987.47;;;16.15;59.26
64853;BME280;56050;55.558;-4.644;2023-05-12T09:31:20;102984.84;;;16.22;59.21
64853;BME280;56050;55.558;-4.644;2023-05-12T09:33:46;102981.44;;;16.29;59.01
64853;BME280;56050;55.558;-4.644;2023-05-12T09:38:43;102983.31;;;16.55;58.65
64853;BME280;56050;55.558;-4.644;2023-05-12T09:41:09;102983.81;;;16.64;58.57
64853;BME280;56050;55.558;-4.644;2023-05-12T09:43:43;102985.84;;;16.70;58.36
64853;BME280;56050;55.558;-4.644;2023-05-12T09:46:09;102992.47;;;16.73;57.56
64853;BME280;56050;55.558;-4.644;2023-05-12T09:48:34;102986.59;;;16.71;57.27
64853;BME280;56050;55.558;-4.644;2023-05-12T09:51:00;102991.59;;;16.65;57.31
64853;BME280;56050;55.558;-4.644;2023-05-12T09:53:25;102993.50;;;16.61;57.75
64853;BME280;56050;55.558;-4.644;2023-05-12T09:55:51;102993.50;;;16.61;57.54
64853;BME280;56050;55.558;-4.644;2023-05-12T09:58:18;102991.16;;;16.60;57.35
64853;BME280;56050;55.558;-4.644;2023-05-12T10:00:44;102999.34;;;16.63;57.72
64853;BME280;56050;55.558;-4.644;2023-05-12T10:03:12;102998.31;;;16.75;57.72
64853;BME280;56050;55.558;-4.644;2023-05-12T10:05:47;102998.06;;;16.87;57.42
64853;BME280;56050;55.558;-4.644;2023-05-12T10:08:19;102995.75;;;16.89;57.00
64853;BME280;56050;55.558;-4.644;2023-05-12T10:10:46;103002.00;;;16.93;57.34
64853;BME280;56050;55.558;-4.644;2023-05-12T10:13:13;102997.03;;;17.02;57.24
64853;BME280;56050;55.558;-4.644;2023-05-12T10:15:39;103005.25;;;17.06;57.37
64853;BME280;56050;55.558;-4.644;2023-05-12T10:18:06;103001.75;;;17.05;57.25
64853;BME280;56050;55.558;-4.644;2023-05-12T10:20:33;103000.19;;;17.08;57.25
64853;BME280;56050;55.558;-4.644;2023-05-12T10:22:59;103009.91;;;17.05;57.23
64853;BME280;56050;55.558;-4.644;2023-05-12T10:25:27;103008.00;;;17.09;57.08
64853;BME280;56050;55.558;-4.644;2023-05-12T10:27:54;103007.59;;;17.07;56.89
64853;BME280;56050;55.558;-4.644;2023-05-12T10:30:21;103008.69;;;16.99;56.95
64853;BME280;56050;55.558;-4.644;2023-05-12T10:32:46;103011.34;;;16.92;56.84
64853;BME280;56050;55.558;-4.644;2023-05-12T10:35:12;103014.75;;;16.85;57.02
64853;BME280;56050;55.558;-4.644;2023-05-12T10:37:41;103015.56;;;16.86;57.07
64853;BME280;56050;55.558;-4.644;2023-05-12T10:40:07;103017.13;;;16.90;57.16
64853;BME280;56050;55.558;-4.644;2023-05-12T10:42:37;103018.38;;;16.96;56.97
64853;BME280;56050;55.558;-4.644;2023-05-12T10:45:14;103011.88;;;17.08;56.70
64853;BME280;56050;55.558;-4.644;2023-05-12T10:47:41;103014.25;;;17.13;56.62
64853;BME280;56050;55.558;-4.644;2023-05-12T10:50:07;103014.66;;;17.15;56.16
64853;BME280;56050;55.558;-4.644;2023-05-12T10:52:33;103009.59;;;17.14;56.17
64853;BME280;56050;55.558;-4.644;2023-05-12T10:55:00;103018.97;;;17.16;56.33
64853;BME280;56050;55.558;-4.644;2023-05-12T10:57:26;103013.56;;;17.23;56.46
64853;BME280;56050;55.558;-4.644;2023-05-12T10:59:55;103015.97;;;17.28;56.17
64853;BME280;56050;55.558;-4.644;2023-05-12T11:02:28;103016.41;;;17.34;56.30
64853;BME280;56050;55.558;-4.644;2023-05-12T11:04:59;103009.81;;;17.38;56.22
64853;BME280;56050;55.558;-4.644;2023-05-12T11:07:27;103006.69;;;17.40;55.90
64853;BME280;56050;55.558;-4.644;2023-05-12T11:09:55;103014.50;;;17.41;55.84
64853;BME280;56050;55.558;-4.644;2023-05-12T11:12:21;103005.16;;;17.39;56.16
64853;BME280;56050;55.558;-4.644;2023-05-12T11:14:47;103007.09;;;17.38;55.98
64853;BME280;56050;55.558;-4.644;2023-05-12T11:17:13;103009.81;;;17.38;56.02
64853;BME280;56050;55.558;-4.644;2023-05-12T11:19:44;103009.44;;;17.40;55.97
64853;BME280;56050;55.558;-4.644;2023-05-12T11:22:10;103005.19;;;17.46;55.86
64853;BME280;56050;55.558;-4.644;2023-05-12T11:24:39;103001.03;;;17.55;55.95
64853;BME280;56050;55.558;-4.644;2023-05-12T11:27:06;103003.06;;;17.69;55.63
64853;BME280;56050;55.558;-4.644;2023-05-12T11:29:36;103010.16;;;17.81;55.71
64853;BME280;56050;55.558;-4.644;2023-05-12T11:32:04;103018.38;;;17.88;55.51
64853;BME280;56050;55.558;-4.644;2023-05-12T11:34:29;103012.56;;;17.93;55.02
64853;BME280;56050;55.558;-4.644;2023-05-12T11:36:55;103023.91;;;17.95;54.78
64853;BME280;56050;55.558;-4.644;2023-05-12T11:39:23;103021.16;;;17.98;54.90
64853;BME280;56050;55.558;-4.644;2023-05-12T11:41:49;103021.19;;;18.02;54.85
64853;BME280;56050;55.558;-4.644;2023-05-12T11:44:19;103021.22;;;18.05;54.67
64853;BME280;56050;55.558;-4.644;2023-05-12T11:49:27;103019.75;;;18.22;54.73
64853;BME280;56050;55.558;-4.644;2023-05-12T11:51:55;103025.22;;;18.26;54.36
64853;BME280;56050;55.558;-4.644;2023-05-12T11:54:21;103025.22;;;18.22;54.30
64853;BME280;56050;55.558;-4.644;2023-05-12T11:56:49;103025.16;;;18.15;54.57
64853;BME280;56050;55.558;-4.644;2023-05-12T11:59:42;103020.47;;;18.12;54.47
64853;BME280;56050;55.558;-4.644;2023-05-12T12:02:07;103017.41;;;18.20;54.82
64853;BME280;56050;55.558;-4.644;2023-05-12T12:04:43;103027.19;;;18.25;54.61
64853;BME280;56050;55.558;-4.644;2023-05-12T12:07:08;103021.38;;;18.34;54.45
64853;BME280;56050;55.558;-4.644;2023-05-12T12:09:38;103018.34;;;18.49;54.29
64853;BME280;56050;55.558;-4.644;2023-05-12T12:12:09;103021.50;;;18.58;53.89
64853;BME280;56050;55.558;-4.644;2023-05-12T12:14:36;103020.72;;;18.61;53.76
64853;BME280;56050;55.558;-4.644;2023-05-12T12:17:03;103029.31;;;18.70;54.08
64853;BME280;56050;55.558;-4.644;2023-05-12T12:19:29;103029.38;;;18.85;53.58
64853;BME280;56050;55.558;-4.644;2023-05-12T12:21:55;103026.25;;;18.86;52.92
64853;BME280;56050;55.558;-4.644;2023-05-12T12:24:21;103027.00;;;18.76;52.46
64853;BME280;56050;55.558;-4.644;2023-05-12T12:26:47;103019.19;;;18.64;52.71
64853;BME280;56050;55.558;-4.644;2023-05-12T12:29:12;103021.09;;;18.60;53.01
64853;BME280;56050;55.558;-4.644;2023-05-12T12:31:39;103020.72;;;18.61;53.25
64853;BME280;56050;55.558;-4.644;2023-05-12T12:34:05;103022.28;;;18.62;53.22
64853;BME280;56050;55.558;-4.644;2023-05-12T12:36:31;103014.47;;;18.64;53.07
64853;BME280;56050;55.558;-4.644;2023-05-12T12:38:57;103012.53;;;18.65;53.03
64853;BME280;56050;55.558;-4.644;2023-05-12T12:41:23;103021.50;;;18.65;52.94
64853;BME280;56050;55.558;-4.644;2023-05-12T12:43:48;103012.16;;;18.63;53.05
64853;BME280;56050;55.558;-4.644;2023-05-12T12:46:14;103013.72;;;18.71;53.15